うみ

2024/04/19

定点 富山空港他 2024/4/19 fri

黄砂来襲。朝から晴れているのに白っぽい、もやっとした空模様。

RJNT 190000Z 25003KT 170V300 9999 FEW020 SCT080 15/09 Q1013

20240419_rjnt_00ja11fj

昨日、富山-青森を往復して、お泊り。今日も青森へ飛び立ちます。

20240419_rjnt_01ja11fj

FDA7901 RJNT-RJSA JA11FJ ERJ-175STD

20240419_rjnt_02ja11fj

今は、弘前城のサクラが見ごろだね。

RJNT 190100Z VRB02KT 9999 FEW030 16/07 Q1013

20240419_rjnt_03jr1028d

久しぶりに鉄分補給が仇。JA412N を撮り逃してしまった。

20240419_rjnt_04jr1028d

1028D D202

RJNT 190200Z VRB04KT 9999 FEW030 17/07 Q1012

20240419_rjnt_05ja84an
20240419_rjnt_06ja84an

ANA315 RJTT-RJNT JA84AN B737-881

20240419_rjnt_07ja84an

ANA316 RJNT-RJTT JA84AN B737-881

いやー、読書に熱中してしまい、撮り逃しやわ。

20240419_rjnt_08ja139t

JA139T↓ AW139 富山県警察

RJNT 190300Z VRB02KT 9999 FEW030 18/06 Q1012

20240419_rjnt_09ja70an
20240419_rjnt_10ja70an

ANA1182 RJCC-RJNT JA70AN B737-881

20240419_rjnt_11ja173b

JA173B← BK117C-2 THK 富山県ドクターヘリ

ドクヘリと言えば、沖縄県浦添総合病院の運行会社がヒラタから鹿児島に変わったようです。今度グランニューを見に行こう。

20240419_rjnt_12ja11aj

JA11AJ↑ C208A ASK

20240419_rjnt_13b18661

50分遅れでの到着です。千歳便の後になりました。

20240419_rjnt_14b18661
20240419_rjnt_15b18661

CAL2170 RCTP-RJNT B-18661 B737-8AL

20240419_rjnt_16ja12aj

JA12AJ↓ C208B ASK

RJNT 190400Z 32006KT 230V040 9999 FEW020 SCT050 19/06 Q1012

20240419_rjnt_17ja70an
20240419_rjnt_18ja70an

ANA1181 RJNT-RJCC JA70AN B737-881

20240419_rjnt_19b18661

到着が遅れたので、出発も遅れています。

20240419_rjnt_20hl8241

先に大韓航空さんが到着。しかし大韓は、いつぶりなんだろう?

20240419_rjnt_21hl8241

KAL9715 RKSI-RJNT HL8241 B737-8BK

20240419_rjnt_22hl8241
20240419_rjnt_23hl8241
20240419_rjnt_24b18661

ダイナさんラインナップします。

20240419_rjnt_25hl8241
20240419_rjnt_26b18661

CAL2171 RJNT-RCTP B-18661 B737-8AL

20240419_rjnt_27b18661
20240419_rjnt_28b18661

中華航空は連日飛来があります。

20240419_rjnt_29ja119w

JA119W↑ AW139 富山県消防防災

RJNT 190500Z 24007KT 190V270 9999 FEW020 19/06 Q1011

20240419_rjnt_30ja9678

JA9678↓ AS332L1 AKF

20240419_rjnt_31ja11aj

JA11AJ C208A ASK このPさんは、帰りはいつもIFRで来られます。

20240419_rjnt_32hl8241
20240419_rjnt_33hl8241
20240419_rjnt_34hl8241

KAL9716 RJNT-RKSI HL8241 B737-8BK

河原は、この辺で

09RJNT 190600Z 28005KT 230V010 9999 FEW020 20/04 Q1011

帰りに難破船

20240419_ziwase_50dongyu

油や水の抜き取りは終わった様で、船首が軽くなって、船尾が前より沈んでいます。

20240419_ziwase_51dongyu
20240419_ziwase_52dongyu

作業小屋のプレハブが撤去されていました。あの救命艇が、地元の産廃業者に引き渡され、撤去の模様。

 

| | コメント (0)

2024/04/13

定点 富山空港他 2024/4/13 sat

昨日から半島系の春チャーターが始まりました。トップバッターに大韓航空。本体が来るのは、何年ぶりだろう?

RJNT 130100Z VRB05KT CAVOK 18/07 Q1019

20240413_0higashiyatsuo_00hl8371

今日は、アシアナのチャーターでしたが、すっかり忘れていて、桜を見に来てしまいました。でも、ここから桜越にファイナルの機体が見えました。

20240413_0higashiyatsuo_01jr1028

1028D D201 桜は、今が最盛期

20240413_0higashiyatsuo_02jr1028

先日見たハクモクレンは散って、赤木蓮が目立っていました。

20240413_rjnt_03b1372

CHH439 ZBAA-RJAA B-1372 B737-84P

先行するEOKの雲を追って、成田へ

RJNT 130200Z 36006KT 320V040 CAVOK 19/09 Q1018

20240413_rjnt_04ja65an

さて河原に来ると、RNAV02 お天気が良いので、OWARAでもくっきり。

20240413_rjnt_05ja65an

川面も、きらきら綺麗に輝いています。

20240413_rjnt_06ja65an

ANA315 RJTT-RJNT JA65AN B737-881

20240413_rjnt_07ja65an
20240413_rjnt_08hl8371

315の着陸を待ってラインナップ

20240413_rjnt_09hl8371

久しぶりのお見合い

20240413_rjnt_10ja65an
20240413_rjnt_11hl8371

AAR1273 RJNT-RKSI HL8371 A321-251NX

次のアシアナ便は、16日火曜日

RJNT 130300Z 36006KT 320V060 CAVOK 19/08 Q1018

20240413_rjnt_12ja65an
20240413_rjnt_13ja65an

ANA316 RJNT-RJTT JA65AN B737-881

20240413_rjnt_14ja78an

こちらは、タイトなサークリング A席は、楽しかっただろうな。

20240413_rjnt_15ja78an

ショートファイナルで、きっちりアラインして

20240413_rjnt_16ja78an

ANA1182 RJCC-RJNT JA78AN B737-881

20240413_rjnt_17ja78an

RJNT 130400Z 36007KT 330V050 CAVOK 19/08 Q1017

20240413_rjnt_18ja78an

離陸は、上海さん待ち

20240413_rjnt_19b5261

ライトブレイク

20240413_rjnt_20ja78an

ANA1181 RJNT-RJTT JA78AN B737-881

20240413_rjnt_21b5261

こちらもお手本のようなファイナル

20240413_rjnt_22b5261
20240413_rjnt_23b5261

CSH825 ZSPD-RJNT B-5261 B737-76D

20240413_rjnt_24b5261
20240413_rjnt_25b5261
20240413_rjnt_26ja119w

お昼を過ぎて、今日も訓練です。

20240413_rjnt_27ja119w

JA119W↑ AW139 富山県消防防災

お隣石川防災さんの新しい機体が、いよいよ登録されました。

RJNT 130500Z 35009KT CAVOK 20/08 Q1017

20240413_rjnt_28b5261
20240413_rjnt_29b5261

CSH826 RJNT-ZSPD B-5261 B737-76D

20240413_rjnt_30b5261

時間帯を早くしたおかげで、EDCTで待たされることが少なくなりました。

20240413_ziwase_31dongyu

今日は、最後に難破船 DONG YU

20240413_ziwase_32dongyu

「世界で最も美しい湾クラブ」

| | コメント (0)

2024/04/07

定点 伏木・富山空港・東八尾 2024/4/7 sun

穏やかなビューティフル・サンデイ。皆さんお花見に忙しいかな。

RJNT 062300Z VRB02KT CAVOK 15/08 Q1018

今日は、いつもの難破船でなくて、大きな船が来るというので、そこからスタートです。

20240407_0fushiki_00westerdam

庄川右岸に着くと、靄の中に船影が見えます。昨晩境港を出航して朝に到着してます。

20240407_0fushiki_01westerdam

先導は「日本海」

RJNT 070000Z 06003KT 360V130 CAVOK 16/08 Q1018

20240407_0fushiki_02westerdam

艫は、「長田丸」がお供をします。

20240407_0fushiki_03westerdam

オランダ船籍の「Westerdam」8万トンもあるぜよ。

20240407_0fushiki_04westerdam

水鳥さんがトレイル

20240407_0fushiki_05westerdam

小じゃれたファンネル

20240407_0fushiki_06westerdam

会社は、「Holland America Line.」

20240407_0fushiki_07westerdam

定置港は「ROTTERDAM」

20240407_0fushiki_08westerdam

万葉埠頭に接岸します。

20240407_0fushiki_09westerdam

さて、ここから廻頭です。

20240407_0fushiki_10westerdam

自船のスラスターでゆっくり回転します。タグはイザと言う時の安全牌。

20240407_0fushiki_11westerdam

まあ、すごいことですね。

20240407_0fushiki_12westerdam

舫が降ろされ、接岸です。

20240407_0fushiki_13westerdam

本日夕方出航で、次は酒田です。

では、河原に転戦。

RJNT 070100Z VRB02KT CAVOK 19/08 Q1017

20240407_1rjnt_20hl8562

EOK322 RKTU-RJAA HL8562 A320-214

全天は半分くらい雲がかかっていますが、青空は綺麗。

RJNT 070200Z 35005KT 310V030 CAVOK 22/09 Q1017

定期便の到着を待っていると、上空を別府の展示に築城に展開していたブルーインパルス各機が上空通過。空模様が悪いのか、3編隊に別れてのIFRで次々と通過して行きました。

20240407_1rjnt_21ja81an

ここの桜は、もうちょっと

20240407_1rjnt_22ja81an
20240407_1rjnt_23ja81an

ANA315 RJTT-RJNT JA81AN B737-881

20240407_1rjnt_24ja81an
20240407_1rjnt_25ja81an
20240407_1rjnt_26ja81an

ANA316 RJNT-RJTT JA81AN B737-881

RJNT 070300Z 01005KT 310V050 9999 FEW020 BKN/// 21/09 Q1016

20240407_1rjnt_27ja63an
20240407_1rjnt_28ja63an

ANA1182 RJCC-RJNT JA63AN B737-881

RJNT 070400Z 02006KT 340V050 9999 FEW020 SCT/// 21/08 Q1016

20240407_1rjnt_29hl8355

AIH312 RKSI-RJAA HL8355 B737-8CXSF

20240407_1rjnt_30ja63an
20240407_1rjnt_31ja63an
20240407_1rjnt_32ja63an

ANA1181 RJNT-RJCC JA63AN B737-881

河原はこの辺で、ちょっと桜の名所を巡ってきます。

RJNT 070500Z 01008KT 330V050 9999 FEW020 22/09 Q1016

20240407_2higashiyatsuo_50jr1027d

久しぶりに鉄

20240407_2higashiyatsuo_51jr1027d

1027D D101

 

| | コメント (0)

2024/04/06

定点 富山空港他 2024/4/6 sat

世の中、入学式や入社式も終わって、心新たに新年度の始まりです。

RJNT 060000Z 33003KT 290V360 9999 FEW030 BKN/// 12/06 Q1021

20240406_0iwase_00dongyu

まずは難破船 手前でビーチバレーの準備をしています。

RJNT 060100Z 34004KT 310V020 9999 FEW030 BKN/// 14/06 Q1021

20240406_rjnt_01ja76an

河原に出向いて、ハクモクレンは今が盛り。

20240406_rjnt_02ja76an

ANA315 RJTT-RJNT JA76AN B737-881

20240406_rjnt_03n708gt

GTI8067 LIMC-RJAA N708GT B777-F

20240406_rjnt_04n708gt

大陸から成田に向かう飛行機雲が流れず、いく筋も

RJNT 060200Z 34005KT 290V020 9999 FEW020 BKN/// 15/07 Q1020

20240406_rjnt_05b223r

HLF8827 ZSYT-RJAA B-223R B737-86NBCF

赤いエンジンカウルがかわいいセントラル

20240406_rjnt_06ja201m

JA201M PA-28RT-201T

20240406_rjnt_07ja93nh

あらら、進入滑走路を間違えてダウンウインド。訂正するので、捻りが見れました。

20240406_rjnt_08ja93nh

JA93NH AW139 ANH

20240406_rjnt_09ja93nh

赤木蓮は、これから開花

20240406_rjnt_10ja76an

ANA316 RJNT-RJTT JA76AN B737-881

20240406_rjnt_11ja76an

RJNT 060300Z 32004KT 280V360 9999 FEW020 BKN/// 17/07 Q1019

20240406_rjnt_12ja66an
20240406_rjnt_13ja66an

ANA1182 RJCC-RJNT JA66AN B737-881

20240406_rjnt_14ja66an
20240406_rjnt_15ja173b

JA173B BK117C-2 THK 富山県ドクターヘリ

20240406_rjnt_16ja93nh

JA93NH↑ 給油して名古屋にお帰り

20240406_rjnt_17ja173b

JA173B こちらも帰還

20240406_rjnt_18b5260
20240406_rjnt_19b5260

CSH825 ZSPD-RJNT B-5260 B737-76D

20240406_rjnt_20b5260
20240406_rjnt_21ja201m

JA201M↑ 脚の引っ込む飛行機はカッコイイ

20240406_rjnt_22ja201m

またいらっしー

RJNT 060400Z 36006KT 320V030 9999 FEW020 BKN/// 19/08 Q1018

20240406_rjnt_23ja66an
20240406_rjnt_24ja66an
20240406_rjnt_25ja66an

ANA1181 RJNT-RJCC JA66AN B737-881

20240406_rjnt_26ja66an

脚の引っ込む飛行機はカッコイイ

20240406_rjnt_27ja979a

広島からやって来たみたい。到着は場所が遠くて撮影できず。

20240406_rjnt_28ja979a

JA979A AW139 JCG 「せとわし」第六管区海上保安本部

20240406_rjnt_29ja979a

IFRで仙台へ TOEのラジアルをアラインします。この後脚上。

20240406_rjnt_30ja119w

今日も新人さん訓練

20240406_rjnt_31ja119w

JA119W↑ AW139 富山県消防防災

20240406_rjnt_32ja119w

脚の引っ込む飛行機はカッコイイ

RJNT 060500Z 01008KT 340V050 9999 FEW020 BKN/// 17/08 Q1018

20240406_rjnt_33b5260

今日は、ほぼ定刻

20240406_rjnt_34b5260
20240406_rjnt_35b5260
20240406_rjnt_36b5260

CSH826 RJNT-ZSPD B-5260 B737-76D

20240406_rjnt_37ja3818

JA3818↓ C206 KCK

20240406_rjnt_38ja119w

JA119W↓ 帰還まで待ってみました。

20240406_rjnt_39ja119w

お疲れさまでした。

| | コメント (0)

2024/03/29

定点 富山空港他 2024/3/29 fri

今日は、天気予報どおり朝方は雨が残りましたが、お昼頃から青空が広がるとともに、黄砂の来襲で、鼻ムズムズ。

RJNT 290100Z 24007KT 210V290 9999 -SHRA FEW005 SCT015 BKN020 14/13 Q1006

20240329_rjnt_00ja173b

JA173B BK117C-2 THK 富山県ドクターヘリ

予想した通り、お昼前にご出勤となりました。

20240329_rjnt_01ja173b

シンクロするエンジンスタート

20240329_rjnt_02ja6502

JA6502↑ AS350B3 AKF

###

 

RJNT 290200Z 27005KT 230V310 9999 FEW010 SCT025 BKN035 16/14 Q1006

20240329_rjnt_03ja6502

JA6502↓ まだスキー履いてます。

20240329_rjnt_04ja87an

春の南西の風で、クラブ見物

20240329_rjnt_05ja87an

目の前では、相変わらず先輩諸氏の空中戦が繰り広げられています。

20240329_rjnt_06ja87an

ANA315 RJTT-RJNT JA87AN B737-8AL

20240329_rjnt_07ja87an

なんか機材が整わなかったで、約1時間のディレイ

RJNT 290300Z 27010KT 250V310 9999 FEW010 SCT030 BKN040 17/11 Q1006

20240329_rjnt_08ja214a

すぐ後ろを千歳便が追いかけてきていました。

20240329_rjnt_09ja214a
20240329_rjnt_10ja214a

ANA1182 RJCC-RJNT JA214A A320-271N

20240329_rjnt_11ja6516

JA6516↓ AS350B3 AKF

20240329_rjnt_12ja214a

最近良く2機並びが見られます。

20240329_rjnt_13ja87an

河は、雪解けのダム放水で、春の海になってます。

20240329_rjnt_14ja87an

ANA316 RJNT-RJTT JA87AN B737-8AL

20240329_rjnt_15ja87an

雪解けが急激に進んでいます。

20240329_rjnt_16ja87an

今は3000ftアバーブでレーダーコンタクト

RJNT 290400Z 28009KT 240V350 9999 FEW020 SCT030 19/10 Q1005

20240329_rjnt_17ja214a
20240329_rjnt_18ja214a
20240329_rjnt_19ja214a

ANA1181 RJNT-RJCC JA214A A320-271N

20240329_rjnt_20ja6516

JA6516↑

20240329_rjnt_21ja139t

JA139T 「つるぎ」さんはエンジンランナップだけ。年度末で静かな1日です。

RJNT 290500Z 27019G31KT 230V300 9999 FEW020 17/11 Q1006

今日は、帰り道で難破船

20240329_yiwase_22dongyu

舳先方が大分軽くなったようで、鞆が少し沈んできました。

20240329_yiwase_23dongyu

DONG YU 今日も地道に作業されています。船の遭難は大変やね。アメリカの橋に衝突したコンテナ船も、撤去が大変なのかな。あんなことが起こるんだね。桑原桑原。

| | コメント (0)

2024/03/25

定点 富山空港他 2024/3/25 tue

春霞に春雨。靄ッとした愚図ついたお天気です。

RJNT 250000Z 30003KT 8000 -RA FEW003 SCT015 BKN090 09/08 Q1016

20240325_0iwase_00dongyu

久しぶりに難破船 「DONG YU」

20240325_0iwase_01dongyu

粛々と作業は続いているようです。

RJNT 250100Z VRB02KT 6000 -RA FEW003 SCT008 BKN050 10/09 Q1017

20240325_rjnt_02ja65an
20240325_rjnt_03ja65an

RJNT 250200Z VRB02KT 8000 -RA FEW003 SCT010 BKN080 10/08 Q1016

20240325_rjnt_04ja65an

ANA315 RJTT-RJNT JA65AN B737-881

20240325_rjnt_05ja65an
20240325_rjnt_06ja65an

ANA316 RJNT-RJTT JA65AN B737-881

RJNT 250300Z 33003KT 240V020 8000 -RA FEW003 SCT015 BKN080 11/08 Q1015

20240325_rjnt_07ja214a

先輩の世界では、恋の季節。管理事務所がパンパンやってますが、なかなか空けてれません。

20240325_rjnt_08ja214a
20240325_rjnt_09ja214a

ANA1182 RJCC-RJNT JA214A A320-271N

RJNT 250400Z 35008KT 8000 -RA FEW003 SCT012 BKN080 11/09 Q1015

20240325_rjnt_10ja214a
20240325_rjnt_11ja214a
20240325_rjnt_12ja214a

ANA1181 RJNT-RJCC JA214A A320-271N

こんなお天気ですが、ドクヘリさんは帰ってこず待機中、15時前に早退でしたね。電力さんも飛んでます。

 

| | コメント (0)

2024/03/21

定点 富山空港他 2024/3/21 thu

北陸新幹線敦賀延伸関係で、しばらくご無沙汰していました。

RJNT 210100Z 25009KT 8000 -SHSN FEW008 SCT015 BKN040 02/M01 Q1016

20240321_0iwase_00dongyu

まずは難破船 冬型になっているので、平日でもサーファーが来ています。

20240321_0iwase_01dongyu

地道に油抜き作業が続いています。今日の作業は、始まっていません。

20240321_0iwase_02yukihidemaru8

沖合のタンカーは、「第八幸秀丸」

RJNT 210200Z 27005KT 230V320 9999 -SHSN FEW008 SCT025 BKN050 03/00 Q1016

20240321_rjnt_03ja6516

JA6516↑ AS350B3 AKF

お天気は、変わりやすい模様。ドクヘリさんはお休みですが、北電さん関係は飛んでます。

RJNT 210226Z 26005KT 210V290 1000 -SHSN VV005 03/M01 Q1016 RMK A3002

20240321_rjnt_04ja73an

一転、雪雲がかかると、一瞬の内に雪国。

20240321_rjnt_05ja73an

ANA315 RJTT-RJNT JA73AN B737-881

20240321_rjnt_06ja73an

対岸からターミナルが見えません。

RJNT 210245Z 25004KT 5000 -SHSN FEW008 SCT010 BKN025 02/M00 Q1016 RMK 1CU008 3CU010 5CU025 A3001

20240321_rjnt_07jaxxxx

JA310A EC135P2+ 埼玉県警察「さきたま」

カバーで、どこのどなたさんかは分かりません。BKの警察ヘリとは判る。

20240321_rjnt_08ja01ad

JA01AD C208B HRT

20240321_rjnt_09ja73an

晴れてはいますが、上空は雪雲だらけ。

RJNT 210300Z 21004KT 110V260 9999 -SHSN FEW008 SCT020 BKN035 03/00 Q1016

20240321_rjnt_10ja220a
20240321_rjnt_11ja220a
20240321_rjnt_12ja220a

ANA1182 RJCC-RJNT JA220A A320-271N

20240321_rjnt_13ja220a

札幌便は、わりと利用客があります。

20240321_rjnt_14ja73an
20240321_rjnt_15ja73an
20240321_rjnt_16ja73an

ANA316 RJNT-RJTT JA73AN B737-881

20240321_rjnt_17toyama

とやま鮨は、GW明けから休業。回転寿司に模様替えして7月から再営業。

20240321_rjnt_18toyama

ビジョンの隣に災害対応自販機。いつ設置したんだっけ。

20240321_rjnt_19ja6516

JA6516↓

RJNT 210400Z 16004KT 060V230 9999 -SHSN FEW010 SCT030 BKN040 04/M01 Q1015

20240321_rjnt_20ja220a

羽衣を引いて

20240321_rjnt_21ja220a

ANA1181 RJNT-RJCC JA220A A320-271N

20240321_rjnt_22ja220a

すぐ雪雲に突入、後は静かな河原です。

 

| | コメント (0)

2024/03/11

定点 富山空港他 2024/3/11 mon

今日は、朝から春の日より。立山連峰が綺麗に見えています。

RJNT 110100Z 17007KT 130V210 CAVOK 08/M04 Q1025

20240311_0iwase_00dongyu

まずは難破船 DONG YU

20240311_rjnt_01ja6512

JA6512↓ AS350B3 AKF

20240311_rjnt_02ja6516

JA6516↑ AS350B3 AKF

飛行日和で、朝から測量機が能登に沢山飛んでいます。

20240311_rjnt_03ja74an
20240311_rjnt_04ja74an
20240311_rjnt_05ja74an

ANA315 RJTT-RJNT JA74AN B737-881

RJNT 110200Z 16004KT 090V240 CAVOK 10/M03 Q1024

20240311_rjnt_06ja74an
20240311_rjnt_07ja74an
20240311_rjnt_08ja74an

ANA316 RJNT-RJTT JA74AN B737-881

20240311_rjnt_09ja883b

一仕事終わって帰ってきました。給油ですね。

20240311_rjnt_10ja883b

JA883B C208 AAQ

なんだ、この筒は

RJNT 110300Z 21004KT 130V280 CAVOK 11/M02 Q1023

20240311_rjnt_11hl7638

KAL703 RKSI-RJAA HL7638 B747-8B5

20240311_rjnt_12ja213a
20240311_rjnt_13ja213a
20240311_rjnt_14ja213a

ANA1182 RJCC-RJNT JA213A A320-271N

20240311_rjnt_15ja838n
20240311_rjnt_16ja838n

JA838N C208A NNK

RJNT 110400Z 28005KT 230V320 CAVOK 12/M02 Q1022

20240311_rjnt_17ja883b

JA883B↑ 排気管なのですね。まるで族

今日は883ファミリーが一杯飛んでいて A、B、C、Lを聞きました。

20240311_rjnt_18ja6516

JA6516↓

20240311_rjnt_19ja213a
20240311_rjnt_20ja213a
20240311_rjnt_21ja213a

ANA1181 RJNT-RJCC JA213A A320-271N

この後JA14AJさんも飛来して、給油して八尾にお帰りになりました。キャラバン祭りですね。

| | コメント (0)

2024/03/09

定点 富山空港他 2024/3/9 sat

3月9日 レミオロメンの日

やっぱ、寒の戻りで、寒い一日。時折、雪雲の塊が入ると、ブワーと吹雪いたり、雲の切れ間から青空が見えたり、不安定な日和です。

RJNT 090000Z 24010KT 200V270 3000 -SHSN FEW008 SCT020 BKN030 01/M01 Q1017

20240309_0iwase_00dongyu

まずは、難破船。今日は作業はお休みの様です。

20240309_0iwase_01reimaru

沖のタンカーもけぶっています。 「れい丸」JD2949

RJNT 090116Z 20011KT 2000 -SHSN FEW003 SCT005 BKN008 00/00 Q1017 RMK 1ST003 3CU005 5CU008 A3004

20240309_rjnt_02b18662

雪が入って、視界悪

20240309_rjnt_03b18662
20240309_rjnt_04b18662

CAL2170 RCTP-RJNT B-18662 B737-8AL

RJNT 090136Z 21007KT 9999 -SHSN FEW003 SCT015 BKN025 01/00 Q1017 RMK 1ST003 3CU015 5CU025 A3003

20240309_rjnt_05ja06fj

今日はFDAチャーターの日。朝の雪で出発が遅れています。昨晩、種子島から来てお泊りしていました。

20240309_rjnt_06b18662

出発もRW20、その間にダイナさんはスポットへ

20240309_rjnt_07ja06fj
20240309_rjnt_08ja06fj
20240309_rjnt_09ja06fj

FDA5721 RJNT-RJFE JA06FJ ERJ-175STD

20240309_rjnt_10ja06fj

お帰りは12日

20240309_rjnt_11b1797

CHH439 ZABB-RJAA B-1797 B737-84P

RJNT 090200Z 17005KT 100V210 9999 -SHSN FEW010 SCT050 BKN070 02/00 Q1016

20240309_rjnt_12ja78an
20240309_rjnt_13ja78an
20240309_rjnt_14ja78an

ANA315 RJTT-RJNT JA78AN B737-881

20240309_rjnt_15ja01ad

JA01AD C208B HRT

20240309_rjnt_16ja220e

JA220E AW139 長野県警察「やまびこ」 あら、まだ帰ってないのね。

20240309_rjnt_17b18662

今は晴れ間でも、デアイシング

20240309_rjnt_18b18662
20240309_rjnt_19ja78an

青組さんも、8の字散布

20240309_rjnt_20b18662
20240309_rjnt_21b18662
20240309_rjnt_22b18662

CAL2171 RJNT-RCTP B-18662 B737-8AL

20240309_rjnt_23b18662

すぐ雪雲に入ってしまいます。

20240309_rjnt_24ja78an

吹雪になってきました。南西の風が強い。

20240309_rjnt_25ja78an
20240309_rjnt_26ja78an

RJNT 090300Z 24012KT 210V280 9999 -SHSN FEW008 SCT020 BKN045 02/M01 Q1016

20240309_rjnt_27ja78an
20240309_rjnt_28ja78an

ANA316 RJNT-RJTT JA78AN B737-881

20240309_rjnt_29ja78an

雲が抜けると、青空が見られます。

20240309_rjnt_30ja220a
20240309_rjnt_31ja220a
20240309_rjnt_32ja220a

ANA1182 RJCC-RJNT JA220A A320-271N

RJNT 090400Z 31008KT 270V340 9999 -SHSN FEW008 SCT050 BKN080 03/M00 Q1016

20240309_rjnt_33ja220a
20240309_rjnt_34ja220a
20240309_rjnt_35ja220a

ANA1181 RJNT-RJCC JA220A A320-271N

RJNT 090500Z 26013KT 220V290 9999 VCSH FEW010 SCT030 BKN040 05/M02 Q1016

20240309_rjnt_36b5801

西風が強く、クラブってます。

20240309_rjnt_37b5801
20240309_rjnt_38b5801
20240309_rjnt_39b5801

CSH825 ZSPD-RJNT B-5801 B737-76D

上海さん、今日の折り返しは、待機もかからず、スムーズにお帰りでした。

ラジオを聞いていると、能登ARSRが回復した様です。

 

 

| | コメント (0)

2024/03/05

定点 富山空港他 2024/3/5 tue

弥生3月ですが、寒い日が戻ってきています。しかし陽射しは、春かな。

RJNT 050100Z 33003KT 9999 FEW090 SCT110 OVC120 05/00 Q1021

20240305_0iwase_00dongyu

本日の難破船 特段変化はみられません。

RJNT 050200Z VRB02KT 9999 FEW060 SCT090 OVC100 06/00 Q1020

20240305_rjnt_01ja88an
20240305_rjnt_02ja88an

ANA315 RJTT-RJNT JA88AN B737-8AL

20240305_rjnt_03ja14aj
20240305_rjnt_04ja14aj

JA14AJ C208 ASK

20240305_rjnt_05ja6516

JA6516↓ AS350B3 AKF

20240305_rjnt_06ja220e
20240305_rjnt_07ja220e

JA220E↓ AW139 長野県警察「やまびこ」

能登支援に来ているようです。

20240305_rjnt_08ja88an
20240305_rjnt_09ja88an

ANA316 RJNT-RJTT JA88AN B737-8AL

20240305_rjnt_10ja6516

JA6516↑

RJNT 050300Z 27003KT 200V340 9999 FEW040 SCT060 BKN070 07/00 Q1020

20240305_rjnt_11ja6512

JA6512↓ AS350B3 AKF

20240305_rjnt_12ja217a
20240305_rjnt_13ja217a

ANA1182 RJCC-RJNT JA217A A320-271N

RJNT 050400Z VRB01KT 9999 -RA FEW030 SCT050 OVC070 07/M01 Q1018

20240305_rjnt_14ja217a
20240305_rjnt_15ja217a

ANA1181 RJNT-RJCC JA217A A320-271N

RJNT 050500Z 36003KT 9999 -RA FEW025 SCT060 OVC080 07/00 Q1017

20240305_rjnt_16b5261
20240305_rjnt_17b5261
20240305_rjnt_18b5261

CSH825 ZSPD-RJNT B-5261 B737-7D6

雨が落ちてきたので離脱。ドクヘリさんも早退してきました。

 

| | コメント (0)

より以前の記事一覧

その他のカテゴリー

BI Boading record aircraft Boading record ship FlightTracking lighthouse NAVAIDS NAVY RJNT LOG SKY MASSAGE US NAVY USMC うみ おか そら てつ アクシデント エアロック チーム室屋 ヘリポート 三沢飛行場 上五島空港 下地島空港 下総飛行場 与論空港 与那国空港 中標津空港 中部国際空港 久米島空港 五島福江空港 仙台空港 伊江島空港 但馬空港 佐賀空港 入間飛行場 八尾空港 八戸飛行場 出雲空港 函館空港 利尻空港 北九州空港 北大東空港 十勝飛行場 千歳飛行場 南大東空港 博物館 厚木飛行場 名古屋飛行場 喜界空港 嘉手納飛行場 場外 壱岐空港 多良間空港 大分空港 大村飛行場 大湊飛行場 大阪国際空港 大館能代空港 天草空港 奄美空港 奥尻空港 宇部山口空港 宇都宮飛行場 宮古空港 宮崎空港 富山空港 対馬空港 小松島飛行場 小松飛行場 屋久島空港 山形空港 岐阜飛行場 岡南飛行場 岡山空港 岩国飛行場 帯広空港 広島空港 広島西飛行場 庄内空港 徳之島空港 徳島飛行場 慶良間空港 成田国際空港 新島空港 新潟空港 新田原飛行場 旭川空港 旭川飛行場 明野飛行場 普天間飛行場 木更津飛行場 札幌飛行場 東京国際空港 松山空港 松島飛行場 松本空港 枕崎飛行場 横田飛行場 沖永良部空港 波照間空港 浜松飛行場 海上保安庁 海上自衛隊 海外 熊本空港 百里飛行場 相馬原飛行場 石垣空港 石見空港 礼文空港 神戸空港 神津島空港 福井空港 福岡空港 福島空港 秋田空港 稚内空港 種子島空港 空撮 立川飛行場 竜ヶ崎飛行場 築城飛行場 粟国空港 美保飛行場 能登空港 舞鶴飛行場 航空自衛隊 芦屋飛行場 花巻空港 調布飛行場 警務消防 那覇空港 釧路空港 長崎空港 関西国際空港 陸上自衛隊 隠岐空港 霞ヶ浦飛行場 霞目飛行場 青森空港 静岡空港 静浜飛行場 飛行場跡 飛行船 鹿児島空港 鹿屋飛行場